Time;durP1;ratioP1;P1;durP2;ratioP2;P2;SDS_P1;SDS_P2;PMS_P1;PMS_P2;Temp;Humidity;BMP_temperature;BMP_pressure;BME280_temperature;BME280_humidity;BME280_pressure;Samples;Min_cycle;Max_cycle;Signal;HPM_P1;HPM_P2
2023/01/01 00:01:18;;;;;;;28.60;18.13;;;;;;;;;;5091908;28;20786;-64
2023/01/01 00:03:48;;;;;;;41.83;23.95;;;;;;;;;;5101059;28;20047;-65
2023/01/01 00:06:14;;;;;;;35.65;17.63;;;;;;;;;;5096087;28;20059;-65
2023/01/01 00:08:41;;;;;;;21.85;11.23;;;;;;;;;;5092557;28;20051;-64
2023/01/01 00:11:08;;;;;;;37.60;22.02;;;;;;;;;;5099967;28;20273;-65
2023/01/01 00:13:35;;;;;;;25.83;12.20;;;;;;;;;;5095776;28;20175;-65
2023/01/01 00:16:08;;;;;;;22.67;12.15;;;;;;;;;;5096197;27;20048;-65
2023/01/01 00:18:35;;;;;;;23.52;9.80;;;;;;;;;;5095746;28;20048;-65
2023/01/01 00:21:02;;;;;;;20.55;10.65;;;;;;;;;;5090758;28;20051;-65
2023/01/01 00:23:28;;;;;;;16.20;7.13;;;;;;;;;;5099377;28;20423;-65
2023/01/01 00:25:55;;;;;;;13.43;6.15;;;;;;;;;;5081189;28;20059;-64
2023/01/01 00:28:21;;;;;;;13.23;6.90;;;;;;;;;;5103777;28;20047;-65
2023/01/01 00:30:47;;;;;;;14.23;4.82;;;;;;;;;;5095694;28;20044;-64
2023/01/01 00:33:13;;;;;;;16.08;4.65;;;;;;;;;;5097079;28;20460;-64
2023/01/01 00:35:40;;;;;;;11.40;3.88;;;;;;;;;;5088114;28;20040;-65
2023/01/01 00:38:06;;;;;;;15.40;4.80;;;;;;;;;;5088805;28;20059;-64
2023/01/01 00:40:32;;;;;;;10.55;4.20;;;;;;;;;;5089959;28;20043;-64
2023/01/01 00:42:59;;;;;;;11.95;4.15;;;;;;;;;;5089566;28;20594;-65
2023/01/01 00:45:25;;;;;;;12.30;2.95;;;;;;;;;;5095069;28;20048;-64
2023/01/01 00:47:53;;;;;;;15.20;3.67;;;;;;;;;;5089770;28;20047;-65
2023/01/01 00:50:20;;;;;;;15.43;3.63;;;;;;;;;;5095718;28;20052;-64
2023/01/01 00:52:47;;;;;;;13.25;3.53;;;;;;;;;;5085653;28;20447;-66
2023/01/01 00:55:14;;;;;;;7.78;3.17;;;;;;;;;;5082247;28;20116;-64
2023/01/01 00:57:40;;;;;;;10.80;3.97;;;;;;;;;;5099116;28;20434;-64
2023/01/01 01:00:08;;;;;;;10.30;3.17;;;;;;;;;;5088945;28;20109;-65
2023/01/01 01:02:34;;;;;;;12.02;4.90;;;;;;;;;;5091497;28;20097;-64
2023/01/01 01:05:02;;;;;;;19.80;7.55;;;;;;;;;;5088046;28;20047;-65
2023/01/01 01:07:32;;;;;;;8.32;2.67;;;;;;;;;;5069318;28;20268;-65
2023/01/01 01:09:58;;;;;;;5.28;2.63;;;;;;;;;;5091220;28;20134;-65
2023/01/01 01:12:25;;;;;;;13.80;2.67;;;;;;;;;;5082368;28;20044;-64
2023/01/01 01:14:51;;;;;;;12.18;2.63;;;;;;;;;;5101129;28;20043;-65
2023/01/01 01:17:17;;;;;;;11.80;2.63;;;;;;;;;;5087151;28;20039;-64
2023/01/01 01:19:43;;;;;;;6.40;2.22;;;;;;;;;;5082287;28;20048;-65
2023/01/01 01:22:10;;;;;;;11.60;2.80;;;;;;;;;;5096542;28;20035;-64
2023/01/01 01:24:36;;;;;;;6.88;2.63;;;;;;;;;;5086443;28;20044;-64
2023/01/01 01:27:02;;;;;;;9.50;2.80;;;;;;;;;;5093804;28;20043;-64
2023/01/01 01:29:28;;;;;;;9.02;2.30;;;;;;;;;;5095433;28;20070;-64
2023/01/01 01:31:55;;;;;;;10.05;2.05;;;;;;;;;;5084936;28;20040;-64
2023/01/01 01:34:21;;;;;;;7.70;2.08;;;;;;;;;;5080813;28;20044;-67
2023/01/01 01:36:53;;;;;;;9.13;2.30;;;;;;;;;;5098544;28;20128;-66
2023/01/01 01:39:20;;;;;;;7.80;1.88;;;;;;;;;;5094584;28;20043;-65
2023/01/01 01:41:46;;;;;;;7.25;2.05;;;;;;;;;;5095223;28;20060;-64
2023/01/01 01:44:31;;;;;;;7.85;1.88;;;;;;;;;;5093982;28;20052;-64
2023/01/01 01:46:58;;;;;;;6.55;1.88;;;;;;;;;;5090594;28;20050;-65
2023/01/01 01:49:27;;;;;;;10.20;1.92;;;;;;;;;;5089873;28;20128;-65
2023/01/01 01:51:54;;;;;;;6.47;2.00;;;;;;;;;;5092585;28;20048;-65
2023/01/01 01:54:22;;;;;;;7.30;1.92;;;;;;;;;;5103037;28;20454;-65
2023/01/01 01:56:51;;;;;;;7.50;1.92;;;;;;;;;;5099542;28;20051;-65
2023/01/01 01:59:19;;;;;;;8.65;2.30;;;;;;;;;;5075523;28;20048;-65
2023/01/01 02:01:45;;;;;;;11.30;2.33;;;;;;;;;;5087592;28;20044;-65
2023/01/01 02:04:12;;;;;;;7.75;2.38;;;;;;;;;;5094639;28;20081;-65
2023/01/01 02:06:39;;;;;;;7.85;2.05;;;;;;;;;;5097397;28;20047;-64
2023/01/01 02:09:06;;;;;;;9.88;1.92;;;;;;;;;;5084847;28;20040;-65
2023/01/01 02:11:32;;;;;;;7.38;1.90;;;;;;;;;;5091481;28;20040;-65
2023/01/01 02:13:59;;;;;;;5.32;2.20;;;;;;;;;;5095405;28;20060;-66
2023/01/01 02:16:44;;;;;;;6.47;2.13;;;;;;;;;;5086465;28;20408;-65
2023/01/01 02:19:39;;;;;;;7.68;2.30;;;;;;;;;;5102564;27;20044;-65
2023/01/01 02:22:19;;;;;;;10.13;1.90;;;;;;;;;;5097581;27;20100;-65
2023/01/01 02:25:04;;;;;;;7.30;2.35;;;;;;;;;;5094822;28;20442;-65
2023/01/01 02:27:30;;;;;;;10.45;1.98;;;;;;;;;;5093156;28;20043;-65
2023/01/01 02:29:59;;;;;;;8.38;2.90;;;;;;;;;;5095739;28;20040;-64
2023/01/01 02:32:28;;;;;;;6.57;2.17;;;;;;;;;;5099785;28;20051;-65
2023/01/01 02:37:55;;;;;;;8.90;2.00;;;;;;;;;;5085126;28;20040;-65
2023/01/01 02:40:22;;;;;;;6.68;1.98;;;;;;;;;;5094123;28;20119;-65
2023/01/01 02:42:49;;;;;;;5.78;2.40;;;;;;;;;;5089090;28;20047;-66
2023/01/01 02:45:15;;;;;;;5.53;1.55;;;;;;;;;;5082559;28;20047;-66
2023/01/01 02:47:42;;;;;;;7.03;2.03;;;;;;;;;;5093287;28;20051;-65
2023/01/01 02:50:08;;;;;;;9.85;2.03;;;;;;;;;;5083659;28;20055;-64
2023/01/01 02:52:48;;;;;;;16.25;2.42;;;;;;;;;;5100521;28;20044;-64
2023/01/01 02:55:36;;;;;;;6.35;2.55;;;;;;;;;;5096788;28;20095;-66
2023/01/01 03:00:58;;;;;;;9.15;1.70;;;;;;;;;;5089286;28;20039;-65
2023/01/01 03:03:33;;;;;;;5.68;1.85;;;;;;;;;;5102198;28;20070;-66
2023/01/01 03:06:25;;;;;;;7.22;1.77;;;;;;;;;;5094032;28;20075;-66
2023/01/01 03:08:53;;;;;;;7.07;1.70;;;;;;;;;;5095688;28;20047;-65
2023/01/01 03:11:22;;;;;;;6.35;2.03;;;;;;;;;;5089315;28;20518;-65
2023/01/01 03:14:00;;;;;;;8.07;2.13;;;;;;;;;;5087588;28;20035;-65
2023/01/01 03:16:30;;;;;;;8.80;2.00;;;;;;;;;;5102530;28;20408;-65
2023/01/01 03:19:10;;;;;;;4.95;1.50;;;;;;;;;;5099608;28;20039;-65
2023/01/01 03:21:39;;;;;;;9.75;2.63;;;;;;;;;;5095520;28;20078;-64
2023/01/01 03:24:06;;;;;;;10.10;2.05;;;;;;;;;;5094883;27;20471;-65
2023/01/01 03:26:34;;;;;;;8.10;2.00;;;;;;;;;;5092465;28;20035;-64
2023/01/01 03:29:00;;;;;;;9.27;1.92;;;;;;;;;;5094259;28;20048;-64
2023/01/01 03:31:27;;;;;;;9.55;1.92;;;;;;;;;;5084094;28;20504;-64
2023/01/01 03:34:05;;;;;;;6.38;1.92;;;;;;;;;;5088537;28;20047;-64
2023/01/01 03:36:36;;;;;;;8.30;2.15;;;;;;;;;;5080600;28;20073;-64
2023/01/01 03:39:04;;;;;;;6.75;2.13;;;;;;;;;;5089914;28;20476;-64
2023/01/01 03:41:31;;;;;;;6.60;1.70;;;;;;;;;;5080250;28;20052;-64
2023/01/01 03:43:58;;;;;;;5.85;1.88;;;;;;;;;;5089061;28;20056;-65
2023/01/01 03:46:26;;;;;;;10.30;2.30;;;;;;;;;;5089046;28;20143;-65
2023/01/01 03:48:56;;;;;;;11.15;2.40;;;;;;;;;;5093333;28;20044;-65
2023/01/01 03:51:29;;;;;;;6.80;1.73;;;;;;;;;;5096028;28;20040;-65
2023/01/01 03:53:57;;;;;;;7.65;2.25;;;;;;;;;;5090999;27;20047;-65
2023/01/01 03:56:23;;;;;;;;;;;;;;;;;;5101274;28;20040;-65
2023/01/01 03:58:58;;;;;;;3.78;1.33;;;;;;;;;;5096554;28;20296;-65
2023/01/01 04:01:40;;;;;;;9.02;2.00;;;;;;;;;;5091558;28;20043;-65
2023/01/01 04:04:06;;;;;;;6.78;2.03;;;;;;;;;;5096912;28;20051;-65
2023/01/01 04:06:33;;;;;;;9.90;1.88;;;;;;;;;;5086422;28;20423;-65
2023/01/01 04:09:00;;;;;;;5.60;1.98;;;;;;;;;;5086632;28;20055;-66
2023/01/01 04:14:12;;;;;;;8.02;2.15;;;;;;;;;;5106182;28;20047;-65
2023/01/01 04:16:38;;;;;;;7.05;1.70;;;;;;;;;;5087869;28;20662;-65
2023/01/01 04:19:08;;;;;;;7.45;1.50;;;;;;;;;;5089449;28;20139;-65
2023/01/01 04:21:34;;;;;;;6.70;1.60;;;;;;;;;;5091588;28;20043;-65
2023/01/01 04:24:00;;;;;;;5.40;1.73;;;;;;;;;;5083315;28;20509;-65
2023/01/01 04:26:27;;;;;;;14.32;1.95;;;;;;;;;;5100663;28;20052;-65
2023/01/01 04:28:53;;;;;;;11.43;1.60;;;;;;;;;;5084009;28;20115;-66
2023/01/01 04:31:19;;;;;;;6.78;1.75;;;;;;;;;;5099627;28;20097;-65
2023/01/01 04:33:45;;;;;;;5.65;1.50;;;;;;;;;;5092756;28;20407;-65
2023/01/01 04:36:12;;;;;;;10.00;2.15;;;;;;;;;;5081700;28;20059;-65
2023/01/01 04:38:38;;;;;;;8.23;1.40;;;;;;;;;;5099864;28;20772;-65
2023/01/01 04:41:04;;;;;;;6.35;1.48;;;;;;;;;;5092707;28;20601;-65
2023/01/01 04:43:31;;;;;;;5.82;1.63;;;;;;;;;;5098440;28;20523;-65
2023/01/01 04:45:57;;;;;;;7.60;1.42;;;;;;;;;;5090702;28;20135;-65
2023/01/01 04:48:24;;;;;;;15.68;2.13;;;;;;;;;;5089981;28;20059;-65
2023/01/01 04:50:57;;;;;;;6.15;1.40;;;;;;;;;;5085919;28;20091;-65
2023/01/01 04:53:24;;;;;;;4.70;1.67;;;;;;;;;;5101273;28;20055;-65
2023/01/01 04:55:50;;;;;;;8.30;1.63;;;;;;;;;;5096828;28;20044;-65
2023/01/01 04:58:16;;;;;;;12.65;1.63;;;;;;;;;;5087714;28;20314;-65
2023/01/01 05:00:43;;;;;;;4.15;1.35;;;;;;;;;;5095441;28;20056;-65
2023/01/01 05:03:09;;;;;;;4.50;1.27;;;;;;;;;;5063650;28;20079;-66
2023/01/01 05:05:35;;;;;;;6.53;1.70;;;;;;;;;;5070202;28;20052;-65
2023/01/01 05:08:02;;;;;;;9.13;1.90;;;;;;;;;;5092854;28;20044;-65
2023/01/01 05:10:28;;;;;;;6.13;2.05;;;;;;;;;;5109502;28;20080;-65
2023/01/01 05:12:54;;;;;;;6.60;2.42;;;;;;;;;;5100869;28;20464;-65
2023/01/01 05:15:21;;;;;;;6.78;1.73;;;;;;;;;;5092194;28;20043;-65
2023/01/01 05:17:47;;;;;;;9.05;1.83;;;;;;;;;;5088061;28;20462;-65
2023/01/01 05:20:13;;;;;;;5.28;1.58;;;;;;;;;;5087950;28;20040;-65
2023/01/01 05:22:39;;;;;;;6.28;2.00;;;;;;;;;;5099231;28;20047;-65
2023/01/01 05:25:06;;;;;;;4.97;1.42;;;;;;;;;;5095636;28;20054;-65
2023/01/01 05:27:32;;;;;;;10.88;1.80;;;;;;;;;;5089313;28;20048;-65
2023/01/01 05:29:58;;;;;;;5.38;1.55;;;;;;;;;;5099802;28;20040;-65
2023/01/01 05:32:25;;;;;;;6.28;1.55;;;;;;;;;;5084378;28;20044;-65
2023/01/01 05:34:52;;;;;;;11.35;1.90;;;;;;;;;;5101487;28;20101;-65
2023/01/01 05:37:18;;;;;;;6.53;1.70;;;;;;;;;;5089718;28;20135;-65
2023/01/01 05:39:44;;;;;;;7.82;1.85;;;;;;;;;;5103296;28;20044;-65
2023/01/01 05:42:11;;;;;;;9.20;1.88;;;;;;;;;;5105452;28;20056;-65
2023/01/01 05:44:37;;;;;;;8.32;1.67;;;;;;;;;;5093998;28;20056;-65
2023/01/01 05:47:03;;;;;;;9.75;1.80;;;;;;;;;;5095678;28;20055;-65
2023/01/01 05:49:30;;;;;;;8.30;1.40;;;;;;;;;;5087251;28;20055;-65
2023/01/01 05:51:56;;;;;;;6.57;1.42;;;;;;;;;;5105707;28;20051;-65
2023/01/01 05:54:22;;;;;;;6.60;1.48;;;;;;;;;;5097592;28;20047;-65
2023/01/01 05:56:48;;;;;;;8.40;1.70;;;;;;;;;;5099751;28;20055;-65
2023/01/01 05:59:15;;;;;;;7.43;1.40;;;;;;;;;;5091510;28;20415;-65
2023/01/01 06:01:41;;;;;;;9.25;1.45;;;;;;;;;;5078196;28;20044;-65
2023/01/01 06:04:11;;;;;;;7.10;1.80;;;;;;;;;;5095811;28;20055;-65
2023/01/01 06:06:37;;;;;;;6.28;1.80;;;;;;;;;;5105337;27;20484;-65
2023/01/01 06:09:04;;;;;;;7.03;1.73;;;;;;;;;;5104914;28;20060;-65
2023/01/01 06:11:31;;;;;;;9.40;2.17;;;;;;;;;;5085047;28;20052;-65
2023/01/01 06:13:58;;;;;;;7.72;1.77;;;;;;;;;;5094170;28;20044;-65
2023/01/01 06:16:24;;;;;;;7.75;1.45;;;;;;;;;;5100264;28;20338;-65
2023/01/01 06:18:51;;;;;;;5.78;1.42;;;;;;;;;;5094298;28;20482;-65
2023/01/01 06:21:19;;;;;;;7.95;1.58;;;;;;;;;;5100596;28;20062;-65
2023/01/01 06:23:45;;;;;;;3.50;1.00;;;;;;;;;;5086068;28;20054;-65
2023/01/01 06:26:13;;;;;;;3.90;1.20;;;;;;;;;;5097235;28;20052;-65
2023/01/01 06:28:40;;;;;;;10.70;1.63;;;;;;;;;;5088630;28;20044;-65
2023/01/01 06:31:07;;;;;;;4.43;1.35;;;;;;;;;;5094166;28;20074;-65
2023/01/01 06:33:34;;;;;;;4.45;1.52;;;;;;;;;;5094834;28;20427;-65
2023/01/01 06:36:01;;;;;;;3.88;1.00;;;;;;;;;;5086402;28;20043;-65
2023/01/01 06:38:29;;;;;;;6.30;1.40;;;;;;;;;;5110354;28;20487;-65
2023/01/01 06:40:56;;;;;;;5.97;1.67;;;;;;;;;;5093599;28;20411;-65
2023/01/01 06:43:23;;;;;;;3.15;1.00;;;;;;;;;;5090664;28;20040;-65
2023/01/01 06:45:58;;;;;;;8.93;2.80;;;;;;;;;;5087514;28;20083;-65
2023/01/01 06:48:24;;;;;;;4.35;1.17;;;;;;;;;;5096790;28;20071;-65
2023/01/01 06:50:50;;;;;;;5.03;1.80;;;;;;;;;;5100044;28;20046;-65
2023/01/01 06:53:17;;;;;;;8.65;1.60;;;;;;;;;;5093040;28;20056;-65
2023/01/01 06:55:49;;;;;;;4.05;1.10;;;;;;;;;;5092494;28;20101;-65
2023/01/01 06:58:22;;;;;;;7.50;1.63;;;;;;;;;;5087117;28;20043;-64
2023/01/01 07:00:48;;;;;;;6.13;1.10;;;;;;;;;;5091058;28;20043;-65
2023/01/01 07:03:14;;;;;;;4.25;0.85;;;;;;;;;;5100000;27;20056;-65
2023/01/01 07:05:41;;;;;;;6.97;0.80;;;;;;;;;;5085288;28;20051;-65
2023/01/01 07:08:07;;;;;;;5.45;0.98;;;;;;;;;;5094942;28;20051;-65
2023/01/01 07:10:33;;;;;;;2.88;0.60;;;;;;;;;;5088669;28;20526;-65
2023/01/01 07:12:59;;;;;;;3.22;0.65;;;;;;;;;;5095490;27;20050;-66
2023/01/01 07:15:26;;;;;;;5.78;0.88;;;;;;;;;;5088849;28;20520;-65
2023/01/01 07:17:53;;;;;;;2.58;0.90;;;;;;;;;;5090509;28;20051;-65
2023/01/01 07:20:19;;;;;;;3.30;0.80;;;;;;;;;;5097592;28;20101;-65
2023/01/01 07:22:45;;;;;;;6.07;0.85;;;;;;;;;;5090079;28;20044;-65
2023/01/01 07:25:13;;;;;;;4.72;0.70;;;;;;;;;;5094460;28;20047;-65
2023/01/01 07:27:39;;;;;;;3.40;0.73;;;;;;;;;;5087245;28;20122;-65
2023/01/01 07:30:06;;;;;;;3.75;0.75;;;;;;;;;;5079864;28;20047;-65
2023/01/01 07:32:32;;;;;;;1.80;0.65;;;;;;;;;;5097504;28;20056;-65
2023/01/01 07:34:58;;;;;;;2.67;0.52;;;;;;;;;;5101529;28;20492;-65
2023/01/01 07:37:25;;;;;;;4.45;0.80;;;;;;;;;;5100297;28;20048;-66
2023/01/01 07:39:51;;;;;;;3.83;0.88;;;;;;;;;;5090354;28;20044;-65
2023/01/01 07:42:18;;;;;;;3.13;0.82;;;;;;;;;;5096277;28;20138;-65
2023/01/01 07:44:44;;;;;;;2.85;0.60;;;;;;;;;;5092235;28;20445;-65
2023/01/01 07:47:19;;;;;;;2.05;0.63;;;;;;;;;;5090158;28;20047;-65
2023/01/01 07:49:46;;;;;;;4.22;0.73;;;;;;;;;;5089228;28;20045;-66
2023/01/01 07:52:12;;;;;;;4.57;0.70;;;;;;;;;;5094911;28;20048;-66
2023/01/01 07:54:38;;;;;;;2.28;0.60;;;;;;;;;;5101537;28;20056;-67
2023/01/01 07:57:04;;;;;;;4.07;0.80;;;;;;;;;;5091405;28;20066;-66
2023/01/01 07:59:31;;;;;;;7.25;0.90;;;;;;;;;;5106009;28;20055;-66
2023/01/01 08:01:57;;;;;;;5.25;0.70;;;;;;;;;;5093761;28;20044;-66
2023/01/01 08:04:25;;;;;;;1.75;0.80;;;;;;;;;;5099136;28;20044;-67
2023/01/01 08:06:52;;;;;;;4.03;0.80;;;;;;;;;;5084748;28;20044;-66
2023/01/01 08:09:18;;;;;;;4.97;0.95;;;;;;;;;;5097839;28;20052;-66
2023/01/01 08:11:44;;;;;;;2.83;0.98;;;;;;;;;;5100194;28;20624;-67
2023/01/01 08:14:11;;;;;;;2.42;0.80;;;;;;;;;;5096739;28;20151;-66
2023/01/01 08:16:37;;;;;;;3.75;0.90;;;;;;;;;;5096178;28;20138;-66
2023/01/01 08:19:04;;;;;;;4.70;1.08;;;;;;;;;;5100060;27;20079;-66
2023/01/01 08:21:30;;;;;;;5.55;1.30;;;;;;;;;;5093068;28;20407;-67
2023/01/01 08:23:56;;;;;;;4.70;1.23;;;;;;;;;;5086012;28;20048;-66
2023/01/01 08:26:28;;;;;;;5.28;0.77;;;;;;;;;;5094475;28;20054;-67
2023/01/01 08:28:54;;;;;;;5.45;0.80;;;;;;;;;;5091783;28;20093;-66
2023/01/01 08:31:23;;;;;;;10.05;1.02;;;;;;;;;;5091049;28;20478;-67
2023/01/01 08:33:49;;;;;;;7.95;1.25;;;;;;;;;;5092355;28;20048;-66
2023/01/01 08:36:15;;;;;;;4.00;0.95;;;;;;;;;;5094044;28;20579;-67
2023/01/01 08:38:42;;;;;;;6.43;1.13;;;;;;;;;;5103007;28;20047;-66
2023/01/01 08:41:08;;;;;;;6.70;0.80;;;;;;;;;;5086505;28;20052;-67
2023/01/01 08:43:35;;;;;;;5.50;1.10;;;;;;;;;;5104680;28;20047;-66
2023/01/01 08:46:01;;;;;;;6.78;1.02;;;;;;;;;;5093826;28;20056;-66
2023/01/01 08:48:27;;;;;;;4.07;0.82;;;;;;;;;;5089204;28;20048;-67
2023/01/01 08:50:59;;;;;;;4.18;1.00;;;;;;;;;;5097443;28;20043;-67
2023/01/01 08:53:26;;;;;;;4.25;1.20;;;;;;;;;;5100630;27;20051;-67
2023/01/01 08:56:00;;;;;;;3.78;1.35;;;;;;;;;;5083013;28;20601;-67
2023/01/01 08:58:26;;;;;;;4.55;0.90;;;;;;;;;;5096097;28;20462;-67
2023/01/01 09:00:53;;;;;;;4.63;1.00;;;;;;;;;;5098839;28;20129;-67
2023/01/01 09:03:19;;;;;;;10.80;1.40;;;;;;;;;;5094392;28;21166;-67
2023/01/01 09:05:46;;;;;;;5.40;1.20;;;;;;;;;;5102457;28;20402;-67
2023/01/01 09:08:12;;;;;;;5.47;1.02;;;;;;;;;;5098076;28;20499;-66
2023/01/01 09:10:39;;;;;;;7.55;1.90;;;;;;;;;;5104636;28;20047;-67
2023/01/01 09:13:05;;;;;;;5.75;1.17;;;;;;;;;;5101865;28;20062;-66
2023/01/01 09:15:32;;;;;;;9.38;1.50;;;;;;;;;;5099072;28;20122;-68
2023/01/01 09:17:58;;;;;;;4.70;0.85;;;;;;;;;;5091625;28;20058;-68
2023/01/01 09:20:24;;;;;;;9.18;1.30;;;;;;;;;;5094009;28;20415;-67
2023/01/01 09:22:50;;;;;;;6.90;1.15;;;;;;;;;;5091666;27;20385;-68
2023/01/01 09:25:17;;;;;;;6.25;1.10;;;;;;;;;;5107969;28;20048;-67
2023/01/01 09:27:43;;;;;;;6.28;1.20;;;;;;;;;;5095141;28;20054;-66
2023/01/01 09:30:10;;;;;;;8.60;1.30;;;;;;;;;;5102943;28;20303;-66
2023/01/01 09:32:36;;;;;;;5.82;1.50;;;;;;;;;;5110031;27;20055;-67
2023/01/01 09:35:03;;;;;;;7.25;1.58;;;;;;;;;;5085798;28;20134;-66
2023/01/01 09:37:30;;;;;;;6.53;1.60;;;;;;;;;;5097019;28;20044;-66
2023/01/01 09:39:56;;;;;;;5.70;1.10;;;;;;;;;;5096151;28;20052;-67
2023/01/01 09:42:39;;;;;;;4.22;1.40;;;;;;;;;;5101957;28;20052;-67
2023/01/01 09:45:14;;;;;;;7.45;1.05;;;;;;;;;;5102687;28;20043;-67
2023/01/01 09:47:45;;;;;;;7.47;1.40;;;;;;;;;;5095396;28;20146;-67
2023/01/01 09:50:22;;;;;;;8.77;1.30;;;;;;;;;;5102171;28;20111;-67
2023/01/01 09:52:56;;;;;;;7.43;1.40;;;;;;;;;;5107016;28;20123;-67
2023/01/01 09:55:38;;;;;;;6.75;1.50;;;;;;;;;;5095892;28;20059;-67
2023/01/01 09:58:04;;;;;;;6.63;1.30;;;;;;;;;;5095196;28;20485;-67
2023/01/01 10:00:32;;;;;;;10.60;1.15;;;;;;;;;;5094087;28;20079;-67
2023/01/01 10:03:07;;;;;;;4.53;0.90;;;;;;;;;;5097423;28;20472;-67
2023/01/01 10:05:36;;;;;;;7.53;1.45;;;;;;;;;;5093885;28;20416;-66
2023/01/01 10:08:16;;;;;;;7.93;1.55;;;;;;;;;;5095444;28;20044;-66
2023/01/01 10:10:52;;;;;;;7.85;1.20;;;;;;;;;;5101604;27;20482;-66
2023/01/01 10:13:25;;;;;;;5.72;1.70;;;;;;;;;;5100983;28;20048;-67
2023/01/01 10:15:57;;;;;;;10.18;1.75;;;;;;;;;;5084657;28;20076;-66
2023/01/01 10:18:26;;;;;;;9.93;1.60;;;;;;;;;;5095508;28;20066;-66
2023/01/01 10:20:57;;;;;;;8.50;1.48;;;;;;;;;;5098981;28;20116;-66
2023/01/01 10:23:25;;;;;;;8.32;1.83;;;;;;;;;;5103346;28;20467;-66
2023/01/01 10:25:52;;;;;;;8.97;1.57;;;;;;;;;;5104130;28;20405;-66
2023/01/01 10:28:31;;;;;;;5.78;1.42;;;;;;;;;;5085844;28;20276;-66
2023/01/01 10:31:14;;;;;;;7.28;1.80;;;;;;;;;;5093424;28;20488;-66
2023/01/01 10:33:40;;;;;;;4.72;1.10;;;;;;;;;;5087482;28;20048;-67
2023/01/01 10:36:09;;;;;;;5.38;1.17;;;;;;;;;;5097670;28;20125;-66
2023/01/01 10:38:36;;;;;;;4.80;1.20;;;;;;;;;;5101977;28;20100;-66
2023/01/01 10:41:05;;;;;;;5.72;1.33;;;;;;;;;;5095771;28;20066;-66
2023/01/01 10:43:32;;;;;;;4.47;1.10;;;;;;;;;;5082018;28;20047;-66
2023/01/01 10:46:00;;;;;;;10.80;1.90;;;;;;;;;;5097583;28;20462;-66
2023/01/01 10:48:29;;;;;;;10.27;2.13;;;;;;;;;;5104116;27;20071;-66
2023/01/01 10:50:58;;;;;;;3.90;0.93;;;;;;;;;;5087641;28;20043;-66
2023/01/01 10:53:27;;;;;;;6.65;1.10;;;;;;;;;;5098947;28;20105;-67
2023/01/01 10:55:58;;;;;;;9.77;1.67;;;;;;;;;;5082284;28;20044;-66
2023/01/01 10:58:36;;;;;;;7.95;1.40;;;;;;;;;;5104817;28;21210;-66
2023/01/01 11:01:03;;;;;;;14.00;1.38;;;;;;;;;;5087912;28;20718;-66
2023/01/01 11:03:30;;;;;;;10.32;1.60;;;;;;;;;;5095873;28;20047;-67
2023/01/01 11:06:01;;;;;;;5.47;1.50;;;;;;;;;;5096149;28;20071;-66
2023/01/01 11:08:29;;;;;;;7.97;2.05;;;;;;;;;;5082943;28;20040;-67
2023/01/01 11:10:57;;;;;;;7.88;1.70;;;;;;;;;;5095074;28;20548;-67
2023/01/01 11:13:24;;;;;;;8.48;1.50;;;;;;;;;;5087070;28;20075;-67
2023/01/01 11:15:50;;;;;;;8.90;1.40;;;;;;;;;;5095684;28;20496;-68
2023/01/01 11:18:26;;;;;;;3.80;1.20;;;;;;;;;;5085352;28;20570;-68
2023/01/01 11:20:53;;;;;;;9.98;2.00;;;;;;;;;;5088457;28;20039;-67
2023/01/01 11:23:28;;;;;;;10.85;2.80;;;;;;;;;;5088778;28;20060;-68
2023/01/01 11:26:00;;;;;;;7.78;1.70;;;;;;;;;;5089305;28;20047;-67
2023/01/01 11:28:27;;;;;;;6.13;1.63;;;;;;;;;;5092640;28;20449;-67
2023/01/01 11:31:14;;;;;;;8.65;2.38;;;;;;;;;;5092756;28;20066;-67
2023/01/01 11:33:48;;;;;;;5.97;2.00;;;;;;;;;;5097441;28;20051;-68
2023/01/01 11:36:26;;;;;;;12.43;2.70;;;;;;;;;;5083189;28;20155;-68
2023/01/01 11:39:10;;;;;;;6.90;2.28;;;;;;;;;;5090519;28;20089;-68
2023/01/01 11:41:44;;;;;;;7.88;2.75;;;;;;;;;;5084374;28;20105;-68
2023/01/01 11:44:11;;;;;;;13.10;4.10;;;;;;;;;;5083063;28;20103;-68
2023/01/01 11:46:38;;;;;;;9.55;3.75;;;;;;;;;;5091652;28;20054;-67
2023/01/01 11:49:11;;;;;;;12.15;3.85;;;;;;;;;;5086209;28;20094;-68
2023/01/01 11:51:38;;;;;;;12.75;3.00;;;;;;;;;;5094766;28;20052;-68
2023/01/01 11:54:24;;;;;;;8.27;2.90;;;;;;;;;;5083432;27;20055;-68
2023/01/01 11:56:52;;;;;;;11.70;3.53;;;;;;;;;;5073936;28;20051;-68
2023/01/01 11:59:22;;;;;;;9.95;3.10;;;;;;;;;;5087007;28;20538;-68
2023/01/01 12:01:51;;;;;;;12.57;3.63;;;;;;;;;;5099156;28;20123;-68
2023/01/01 12:04:26;;;;;;;11.13;3.50;;;;;;;;;;5099658;27;20050;-67
2023/01/01 12:06:56;;;;;;;12.20;3.70;;;;;;;;;;5091739;28;20048;-68
2023/01/01 12:09:28;;;;;;;9.75;3.33;;;;;;;;;;5094763;28;20127;-68
2023/01/01 12:12:01;;;;;;;12.35;3.42;;;;;;;;;;5089812;28;20529;-67
2023/01/01 12:14:47;;;;;;;13.68;3.42;;;;;;;;;;5097245;28;20539;-66
2023/01/01 12:17:36;;;;;;;12.13;3.28;;;;;;;;;;5081342;28;20416;-66
2023/01/01 12:20:21;;;;;;;7.85;2.50;;;;;;;;;;5085190;28;20093;-66
2023/01/01 12:22:47;;;;;;;11.98;3.20;;;;;;;;;;5083312;28;20488;-66
2023/01/01 12:25:16;;;;;;;9.55;3.15;;;;;;;;;;5095522;28;20054;-66
2023/01/01 12:28:02;;;;;;;9.70;2.95;;;;;;;;;;5096665;28;20122;-66
2023/01/01 12:30:48;;;;;;;11.45;3.55;;;;;;;;;;5102167;28;20052;-67
2023/01/01 12:33:20;;;;;;;8.50;2.40;;;;;;;;;;5084483;28;20493;-67
2023/01/01 12:36:02;;;;;;;13.50;3.92;;;;;;;;;;5095160;28;20479;-66
2023/01/01 12:38:31;;;;;;;15.02;3.22;;;;;;;;;;5090694;28;20047;-66
2023/01/01 12:41:04;;;;;;;9.32;3.40;;;;;;;;;;5094761;28;20047;-66
2023/01/01 12:43:30;;;;;;;11.68;2.95;;;;;;;;;;5088162;28;20048;-66
2023/01/01 12:46:02;;;;;;;11.68;2.95;;;;;;;;;;5081878;28;20424;-66
2023/01/01 12:48:41;;;;;;;10.50;2.97;;;;;;;;;;5090920;28;20048;-66
2023/01/01 12:51:19;;;;;;;15.13;2.63;;;;;;;;;;5072766;28;20048;-66
2023/01/01 12:54:00;;;;;;;10.23;2.53;;;;;;;;;;5095643;28;20062;-67
2023/01/01 12:56:42;;;;;;;9.38;3.03;;;;;;;;;;5081176;28;20135;-67
2023/01/01 12:59:08;;;;;;;8.82;2.60;;;;;;;;;;5092424;28;20059;-67
2023/01/01 13:01:34;;;;;;;10.57;2.83;;;;;;;;;;5089577;28;20047;-67
2023/01/01 13:04:06;;;;;;;11.00;2.95;;;;;;;;;;5092714;28;20090;-68
2023/01/01 13:06:35;;;;;;;11.23;2.38;;;;;;;;;;5092128;28;20048;-67
2023/01/01 13:09:05;;;;;;;12.80;2.75;;;;;;;;;;5087485;28;20063;-67
2023/01/01 13:11:32;;;;;;;9.70;2.65;;;;;;;;;;5089185;28;20048;-67
2023/01/01 13:14:02;;;;;;;12.82;2.65;;;;;;;;;;5096276;28;20078;-67
2023/01/01 13:16:33;;;;;;;7.60;2.35;;;;;;;;;;5092704;28;20054;-67
2023/01/01 13:18:59;;;;;;;9.38;2.42;;;;;;;;;;5085412;28;20075;-67
2023/01/01 13:21:29;;;;;;;12.57;2.13;;;;;;;;;;5095345;28;20039;-67
2023/01/01 13:23:59;;;;;;;11.60;1.80;;;;;;;;;;5097130;28;20153;-67
2023/01/01 13:26:25;;;;;;;11.25;2.15;;;;;;;;;;5094838;28;20142;-67
2023/01/01 13:28:57;;;;;;;9.98;2.22;;;;;;;;;;5093446;28;20097;-67
2023/01/01 13:31:44;;;;;;;12.77;2.22;;;;;;;;;;5090998;27;20048;-67
2023/01/01 13:34:46;;;;;;;12.02;2.53;;;;;;;;;;5095286;28;20056;-67
2023/01/01 13:37:13;;;;;;;11.57;2.28;;;;;;;;;;5040444;28;20063;-67
2023/01/01 13:39:58;;;;;;;12.77;2.45;;;;;;;;;;5049179;28;20049;-67
2023/01/01 13:42:37;;;;;;;15.63;2.97;;;;;;;;;;5039898;28;20456;-67
2023/01/01 13:45:10;;;;;;;7.82;2.03;;;;;;;;;;5023345;28;20103;-66
2023/01/01 13:47:49;;;;;;;9.85;2.42;;;;;;;;;;5046735;28;20057;-67
2023/01/01 13:50:24;;;;;;;14.25;2.30;;;;;;;;;;5048209;28;20061;-67
2023/01/01 13:52:53;;;;;;;10.13;2.95;;;;;;;;;;5047001;28;20951;-68
2023/01/01 13:55:25;;;;;;;9.50;2.22;;;;;;;;;;5037319;28;20053;-68
2023/01/01 13:57:57;;;;;;;9.02;2.20;;;;;;;;;;5047062;28;21171;-68
2023/01/01 14:00:29;;;;;;;13.20;2.55;;;;;;;;;;5039672;28;20076;-68
2023/01/01 14:02:59;;;;;;;12.85;2.70;;;;;;;;;;5048262;28;20059;-68
2023/01/01 14:05:28;;;;;;;14.15;2.42;;;;;;;;;;5040786;28;20052;-67
2023/01/01 14:07:54;;;;;;;11.38;3.13;;;;;;;;;;5044957;28;20049;-68
2023/01/01 14:10:22;;;;;;;13.30;2.92;;;;;;;;;;5055343;28;20049;-69
2023/01/01 14:12:49;;;;;;;14.02;2.95;;;;;;;;;;5088636;27;20047;-68
2023/01/01 14:15:22;;;;;;;8.10;2.45;;;;;;;;;;5091593;28;20051;-68
2023/01/01 14:17:49;;;;;;;10.63;2.38;;;;;;;;;;5089950;28;20040;-68
2023/01/01 14:20:17;;;;;;;10.20;2.38;;;;;;;;;;5102713;28;20475;-68
2023/01/01 14:22:44;;;;;;;11.93;2.20;;;;;;;;;;5097035;28;20135;-68
2023/01/01 14:25:15;;;;;;;12.88;2.72;;;;;;;;;;5104422;28;20444;-68
2023/01/01 14:27:42;;;;;;;13.45;2.83;;;;;;;;;;5094087;28;20054;-68
2023/01/01 14:30:15;;;;;;;11.32;2.30;;;;;;;;;;5095931;27;20047;-68
2023/01/01 14:32:42;;;;;;;10.70;2.65;;;;;;;;;;5102416;27;20485;-68
2023/01/01 14:35:15;;;;;;;10.57;2.70;;;;;;;;;;5091255;28;20048;-68
2023/01/01 14:37:42;;;;;;;13.32;2.78;;;;;;;;;;5093636;28;20454;-68
2023/01/01 14:40:16;;;;;;;10.02;2.72;;;;;;;;;;5085902;28;20047;-68
2023/01/01 14:42:44;;;;;;;12.35;2.88;;;;;;;;;;5108159;27;20073;-68
2023/01/01 14:45:15;;;;;;;9.02;2.25;;;;;;;;;;5096705;28;20050;-68
2023/01/01 14:47:43;;;;;;;10.13;2.70;;;;;;;;;;5104228;28;20048;-67
2023/01/01 14:50:16;;;;;;;12.73;2.97;;;;;;;;;;5090979;28;20051;-67
2023/01/01 14:52:42;;;;;;;7.20;2.00;;;;;;;;;;5094364;28;20414;-67
2023/01/01 14:55:15;;;;;;;14.65;2.58;;;;;;;;;;5089361;28;20050;-67
2023/01/01 14:57:44;;;;;;;15.73;2.72;;;;;;;;;;5092720;28;20047;-69
2023/01/01 15:00:10;;;;;;;;;;;;;;;;;;5098258;28;20048;-68